sensor_id;sensor_type;location;lat;lon;timestamp;P1;durP1;ratioP1;P2;durP2;ratioP2
26806;SDS011;14380;49.910;6.792;2022-11-15T00:00:57;39.28;;;19.70;;
26806;SDS011;14380;49.910;6.792;2022-11-15T00:03:24;31.90;;;18.73;;
26806;SDS011;14380;49.910;6.792;2022-11-15T00:05:53;34.25;;;21.42;;
26806;SDS011;14380;49.910;6.792;2022-11-15T00:08:20;36.47;;;22.60;;
26806;SDS011;14380;49.910;6.792;2022-11-15T00:10:53;45.03;;;22.77;;
26806;SDS011;14380;49.910;6.792;2022-11-15T00:13:20;33.72;;;20.38;;
26806;SDS011;14380;49.910;6.792;2022-11-15T00:15:47;32.75;;;21.55;;
26806;SDS011;14380;49.910;6.792;2022-11-15T00:18:13;37.00;;;22.08;;
26806;SDS011;14380;49.910;6.792;2022-11-15T00:20:41;40.85;;;22.88;;
26806;SDS011;14380;49.910;6.792;2022-11-15T00:23:09;34.97;;;22.00;;
26806;SDS011;14380;49.910;6.792;2022-11-15T00:25:35;37.47;;;22.25;;
26806;SDS011;14380;49.910;6.792;2022-11-15T00:28:02;44.97;;;23.27;;
26806;SDS011;14380;49.910;6.792;2022-11-15T00:30:29;40.70;;;22.60;;
26806;SDS011;14380;49.910;6.792;2022-11-15T00:32:56;44.15;;;24.13;;
26806;SDS011;14380;49.910;6.792;2022-11-15T00:35:22;35.22;;;21.92;;
26806;SDS011;14380;49.910;6.792;2022-11-15T00:37:49;35.45;;;22.35;;
26806;SDS011;14380;49.910;6.792;2022-11-15T00:40:17;33.50;;;20.77;;
26806;SDS011;14380;49.910;6.792;2022-11-15T00:42:43;39.55;;;21.80;;
26806;SDS011;14380;49.910;6.792;2022-11-15T00:45:10;34.88;;;21.95;;
26806;SDS011;14380;49.910;6.792;2022-11-15T00:47:36;37.65;;;22.25;;
26806;SDS011;14380;49.910;6.792;2022-11-15T00:50:03;38.92;;;22.20;;
26806;SDS011;14380;49.910;6.792;2022-11-15T00:52:30;37.70;;;22.40;;
26806;SDS011;14380;49.910;6.792;2022-11-15T00:54:57;36.60;;;21.77;;
26806;SDS011;14380;49.910;6.792;2022-11-15T00:57:25;44.78;;;22.90;;
26806;SDS011;14380;49.910;6.792;2022-11-15T00:59:51;41.65;;;21.13;;
26806;SDS011;14380;49.910;6.792;2022-11-15T01:02:17;34.90;;;21.00;;
26806;SDS011;14380;49.910;6.792;2022-11-15T01:04:44;40.65;;;21.33;;
26806;SDS011;14380;49.910;6.792;2022-11-15T01:07:11;28.58;;;19.10;;
26806;SDS011;14380;49.910;6.792;2022-11-15T01:09:37;37.08;;;20.85;;
26806;SDS011;14380;49.910;6.792;2022-11-15T01:12:04;30.05;;;19.13;;
26806;SDS011;14380;49.910;6.792;2022-11-15T01:14:32;40.22;;;20.90;;
26806;SDS011;14380;49.910;6.792;2022-11-15T01:16:58;31.35;;;18.83;;
26806;SDS011;14380;49.910;6.792;2022-11-15T01:19:26;37.65;;;19.15;;
26806;SDS011;14380;49.910;6.792;2022-11-15T01:21:53;23.23;;;15.30;;
26806;SDS011;14380;49.910;6.792;2022-11-15T01:24:19;28.40;;;16.20;;
26806;SDS011;14380;49.910;6.792;2022-11-15T01:26:46;32.63;;;18.42;;
26806;SDS011;14380;49.910;6.792;2022-11-15T01:29:12;31.73;;;19.67;;
26806;SDS011;14380;49.910;6.792;2022-11-15T01:31:40;36.55;;;20.38;;
26806;SDS011;14380;49.910;6.792;2022-11-15T01:34:06;30.75;;;19.67;;
26806;SDS011;14380;49.910;6.792;2022-11-15T01:36:33;37.08;;;21.42;;
26806;SDS011;14380;49.910;6.792;2022-11-15T01:38:59;39.10;;;22.40;;
26806;SDS011;14380;49.910;6.792;2022-11-15T01:41:27;40.75;;;22.90;;
26806;SDS011;14380;49.910;6.792;2022-11-15T01:43:55;34.03;;;20.35;;
26806;SDS011;14380;49.910;6.792;2022-11-15T01:46:25;34.45;;;21.23;;
26806;SDS011;14380;49.910;6.792;2022-11-15T01:48:57;26.35;;;18.92;;
26806;SDS011;14380;49.910;6.792;2022-11-15T01:51:26;28.90;;;19.42;;
26806;SDS011;14380;49.910;6.792;2022-11-15T01:53:57;25.13;;;17.75;;
26806;SDS011;14380;49.910;6.792;2022-11-15T01:56:27;24.30;;;16.67;;
26806;SDS011;14380;49.910;6.792;2022-11-15T01:58:57;25.88;;;17.90;;
26806;SDS011;14380;49.910;6.792;2022-11-15T02:01:27;19.67;;;14.10;;
26806;SDS011;14380;49.910;6.792;2022-11-15T02:03:55;16.58;;;12.20;;
26806;SDS011;14380;49.910;6.792;2022-11-15T02:06:25;12.32;;;9.90;;
26806;SDS011;14380;49.910;6.792;2022-11-15T02:08:52;13.00;;;9.02;;
26806;SDS011;14380;49.910;6.792;2022-11-15T02:11:20;13.75;;;8.30;;
26806;SDS011;14380;49.910;6.792;2022-11-15T02:13:46;13.05;;;8.35;;
26806;SDS011;14380;49.910;6.792;2022-11-15T02:16:14;8.52;;;7.20;;
26806;SDS011;14380;49.910;6.792;2022-11-15T02:18:52;11.73;;;7.40;;
26806;SDS011;14380;49.910;6.792;2022-11-15T02:21:26;8.15;;;6.60;;
26806;SDS011;14380;49.910;6.792;2022-11-15T02:27:19;8.20;;;6.50;;
26806;SDS011;14380;49.910;6.792;2022-11-15T02:33:07;10.55;;;7.38;;
26806;SDS011;14380;49.910;6.792;2022-11-15T02:35:44;11.02;;;6.95;;
26806;SDS011;14380;49.910;6.792;2022-11-15T02:38:20;11.23;;;7.10;;
26806;SDS011;14380;49.910;6.792;2022-11-15T02:40:56;8.52;;;7.07;;
26806;SDS011;14380;49.910;6.792;2022-11-15T02:43:29;9.75;;;6.82;;
26806;SDS011;14380;49.910;6.792;2022-11-15T02:46:22;9.82;;;6.60;;
26806;SDS011;14380;49.910;6.792;2022-11-15T02:49:12;10.27;;;6.90;;
26806;SDS011;14380;49.910;6.792;2022-11-15T02:51:40;12.32;;;6.63;;
26806;SDS011;14380;49.910;6.792;2022-11-15T02:54:10;10.30;;;6.18;;
26806;SDS011;14380;49.910;6.792;2022-11-15T02:56:39;9.68;;;5.85;;
26806;SDS011;14380;49.910;6.792;2022-11-15T02:59:13;8.15;;;6.13;;
26806;SDS011;14380;49.910;6.792;2022-11-15T03:01:53;7.35;;;5.82;;
26806;SDS011;14380;49.910;6.792;2022-11-15T03:04:33;8.68;;;5.47;;
26806;SDS011;14380;49.910;6.792;2022-11-15T03:07:10;6.70;;;5.50;;
26806;SDS011;14380;49.910;6.792;2022-11-15T03:09:42;7.60;;;5.63;;
26806;SDS011;14380;49.910;6.792;2022-11-15T03:12:17;6.65;;;5.07;;
26806;SDS011;14380;49.910;6.792;2022-11-15T03:14:53;8.23;;;5.28;;
26806;SDS011;14380;49.910;6.792;2022-11-15T03:17:27;8.07;;;4.90;;
26806;SDS011;14380;49.910;6.792;2022-11-15T03:19:57;8.52;;;4.97;;
26806;SDS011;14380;49.910;6.792;2022-11-15T03:22:26;6.57;;;4.82;;
26806;SDS011;14380;49.910;6.792;2022-11-15T03:27:58;7.65;;;4.50;;
26806;SDS011;14380;49.910;6.792;2022-11-15T03:30:28;5.72;;;4.30;;
26806;SDS011;14380;49.910;6.792;2022-11-15T03:32:58;9.25;;;4.35;;
26806;SDS011;14380;49.910;6.792;2022-11-15T03:35:27;7.93;;;4.18;;
26806;SDS011;14380;49.910;6.792;2022-11-15T03:37:57;5.97;;;4.05;;
26806;SDS011;14380;49.910;6.792;2022-11-15T03:40:33;7.82;;;4.13;;
26806;SDS011;14380;49.910;6.792;2022-11-15T03:43:04;5.85;;;3.88;;
26806;SDS011;14380;49.910;6.792;2022-11-15T03:45:39;9.15;;;4.22;;
26806;SDS011;14380;49.910;6.792;2022-11-15T03:48:12;9.02;;;4.40;;
26806;SDS011;14380;49.910;6.792;2022-11-15T03:50:40;6.45;;;4.28;;
26806;SDS011;14380;49.910;6.792;2022-11-15T03:53:09;4.63;;;4.10;;
26806;SDS011;14380;49.910;6.792;2022-11-15T03:55:36;7.60;;;3.75;;
26806;SDS011;14380;49.910;6.792;2022-11-15T03:58:02;6.32;;;3.95;;
26806;SDS011;14380;49.910;6.792;2022-11-15T04:00:29;6.05;;;3.80;;
26806;SDS011;14380;49.910;6.792;2022-11-15T04:05:51;4.25;;;3.05;;
26806;SDS011;14380;49.910;6.792;2022-11-15T04:08:18;7.70;;;3.55;;
26806;SDS011;14380;49.910;6.792;2022-11-15T04:10:44;3.45;;;3.03;;
26806;SDS011;14380;49.910;6.792;2022-11-15T04:13:11;4.15;;;3.30;;
26806;SDS011;14380;49.910;6.792;2022-11-15T04:15:37;8.82;;;3.80;;
26806;SDS011;14380;49.910;6.792;2022-11-15T04:18:04;4.82;;;3.38;;
26806;SDS011;14380;49.910;6.792;2022-11-15T04:20:32;6.53;;;3.40;;
26806;SDS011;14380;49.910;6.792;2022-11-15T04:23:17;5.25;;;3.13;;
26806;SDS011;14380;49.910;6.792;2022-11-15T04:26:02;9.77;;;3.33;;
26806;SDS011;14380;49.910;6.792;2022-11-15T04:28:31;6.15;;;3.00;;
26806;SDS011;14380;49.910;6.792;2022-11-15T04:30:57;6.82;;;3.03;;
26806;SDS011;14380;49.910;6.792;2022-11-15T04:33:24;6.13;;;3.30;;
26806;SDS011;14380;49.910;6.792;2022-11-15T04:35:52;6.03;;;3.38;;
26806;SDS011;14380;49.910;6.792;2022-11-15T04:38:38;11.85;;;4.95;;
26806;SDS011;14380;49.910;6.792;2022-11-15T04:41:04;8.63;;;4.82;;
26806;SDS011;14380;49.910;6.792;2022-11-15T04:43:31;14.35;;;5.97;;
26806;SDS011;14380;49.910;6.792;2022-11-15T04:45:57;14.45;;;5.40;;
26806;SDS011;14380;49.910;6.792;2022-11-15T04:48:24;7.95;;;3.90;;
26806;SDS011;14380;49.910;6.792;2022-11-15T04:50:52;10.60;;;4.47;;
26806;SDS011;14380;49.910;6.792;2022-11-15T04:53:18;11.13;;;3.95;;
26806;SDS011;14380;49.910;6.792;2022-11-15T04:55:45;7.80;;;3.92;;
26806;SDS011;14380;49.910;6.792;2022-11-15T04:58:12;9.05;;;3.78;;
26806;SDS011;14380;49.910;6.792;2022-11-15T05:00:38;4.82;;;3.17;;
26806;SDS011;14380;49.910;6.792;2022-11-15T05:03:05;5.40;;;3.50;;
26806;SDS011;14380;49.910;6.792;2022-11-15T05:05:53;5.78;;;3.40;;
26806;SDS011;14380;49.910;6.792;2022-11-15T05:08:23;7.63;;;3.30;;
26806;SDS011;14380;49.910;6.792;2022-11-15T05:10:50;5.63;;;3.00;;
26806;SDS011;14380;49.910;6.792;2022-11-15T05:13:17;5.70;;;3.40;;
26806;SDS011;14380;49.910;6.792;2022-11-15T05:15:43;8.23;;;3.60;;
26806;SDS011;14380;49.910;6.792;2022-11-15T05:18:10;6.60;;;2.72;;
26806;SDS011;14380;49.910;6.792;2022-11-15T05:20:36;6.28;;;3.15;;
26806;SDS011;14380;49.910;6.792;2022-11-15T05:23:04;3.40;;;2.92;;
26806;SDS011;14380;49.910;6.792;2022-11-15T05:25:31;4.85;;;2.60;;
26806;SDS011;14380;49.910;6.792;2022-11-15T05:27:58;3.17;;;2.70;;
26806;SDS011;14380;49.910;6.792;2022-11-15T05:30:24;5.97;;;3.63;;
26806;SDS011;14380;49.910;6.792;2022-11-15T05:32:51;5.70;;;3.20;;
26806;SDS011;14380;49.910;6.792;2022-11-15T05:35:18;6.97;;;3.63;;
26806;SDS011;14380;49.910;6.792;2022-11-15T05:37:53;5.75;;;3.00;;
26806;SDS011;14380;49.910;6.792;2022-11-15T05:40:21;12.15;;;3.42;;
26806;SDS011;14380;49.910;6.792;2022-11-15T05:42:47;4.60;;;2.90;;
26806;SDS011;14380;49.910;6.792;2022-11-15T05:45:14;4.57;;;3.28;;
26806;SDS011;14380;49.910;6.792;2022-11-15T05:47:41;4.18;;;3.08;;
26806;SDS011;14380;49.910;6.792;2022-11-15T05:50:08;5.88;;;3.30;;
26806;SDS011;14380;49.910;6.792;2022-11-15T05:52:38;5.32;;;2.83;;
26806;SDS011;14380;49.910;6.792;2022-11-15T05:55:05;5.95;;;3.03;;
26806;SDS011;14380;49.910;6.792;2022-11-15T05:57:36;4.00;;;2.95;;
26806;SDS011;14380;49.910;6.792;2022-11-15T06:00:03;3.97;;;3.08;;
26806;SDS011;14380;49.910;6.792;2022-11-15T06:02:31;5.55;;;3.45;;
26806;SDS011;14380;49.910;6.792;2022-11-15T06:04:57;8.73;;;4.25;;
26806;SDS011;14380;49.910;6.792;2022-11-15T06:07:23;5.88;;;4.00;;
26806;SDS011;14380;49.910;6.792;2022-11-15T06:09:50;7.95;;;3.67;;
26806;SDS011;14380;49.910;6.792;2022-11-15T06:12:16;6.60;;;3.80;;
26806;SDS011;14380;49.910;6.792;2022-11-15T06:14:44;5.45;;;4.10;;
26806;SDS011;14380;49.910;6.792;2022-11-15T06:17:11;9.85;;;4.20;;
26806;SDS011;14380;49.910;6.792;2022-11-15T06:19:37;9.07;;;4.40;;
26806;SDS011;14380;49.910;6.792;2022-11-15T06:22:04;7.07;;;3.53;;
26806;SDS011;14380;49.910;6.792;2022-11-15T06:24:30;7.70;;;3.78;;
26806;SDS011;14380;49.910;6.792;2022-11-15T06:26:57;6.35;;;3.42;;
26806;SDS011;14380;49.910;6.792;2022-11-15T06:29:24;5.85;;;3.60;;
26806;SDS011;14380;49.910;6.792;2022-11-15T06:31:52;5.65;;;3.30;;
26806;SDS011;14380;49.910;6.792;2022-11-15T06:34:18;5.53;;;3.22;;
26806;SDS011;14380;49.910;6.792;2022-11-15T06:36:45;7.70;;;4.13;;
26806;SDS011;14380;49.910;6.792;2022-11-15T06:39:11;6.90;;;3.85;;
26806;SDS011;14380;49.910;6.792;2022-11-15T06:41:38;7.47;;;4.05;;
26806;SDS011;14380;49.910;6.792;2022-11-15T06:44:04;6.35;;;3.97;;
26806;SDS011;14380;49.910;6.792;2022-11-15T06:46:31;7.70;;;3.70;;
26806;SDS011;14380;49.910;6.792;2022-11-15T06:48:59;7.80;;;3.65;;
26806;SDS011;14380;49.910;6.792;2022-11-15T06:51:25;8.18;;;2.60;;
26806;SDS011;14380;49.910;6.792;2022-11-15T06:53:52;2.97;;;2.60;;
26806;SDS011;14380;49.910;6.792;2022-11-15T06:56:18;5.40;;;2.55;;
26806;SDS011;14380;49.910;6.792;2022-11-15T06:58:45;4.93;;;2.92;;
26806;SDS011;14380;49.910;6.792;2022-11-15T07:01:12;7.57;;;3.00;;
26806;SDS011;14380;49.910;6.792;2022-11-15T07:03:39;2.97;;;2.60;;
26806;SDS011;14380;49.910;6.792;2022-11-15T07:06:08;5.93;;;2.85;;
26806;SDS011;14380;49.910;6.792;2022-11-15T07:08:35;6.18;;;2.53;;
26806;SDS011;14380;49.910;6.792;2022-11-15T07:11:03;2.78;;;2.40;;
26806;SDS011;14380;49.910;6.792;2022-11-15T07:13:31;4.78;;;2.30;;
26806;SDS011;14380;49.910;6.792;2022-11-15T07:16:01;2.60;;;2.08;;
26806;SDS011;14380;49.910;6.792;2022-11-15T07:18:28;4.65;;;1.98;;
26806;SDS011;14380;49.910;6.792;2022-11-15T07:20:54;5.82;;;2.50;;
26806;SDS011;14380;49.910;6.792;2022-11-15T07:23:22;2.83;;;2.15;;
26806;SDS011;14380;49.910;6.792;2022-11-15T07:25:49;4.40;;;2.35;;
26806;SDS011;14380;49.910;6.792;2022-11-15T07:28:15;3.67;;;2.60;;
26806;SDS011;14380;49.910;6.792;2022-11-15T07:30:42;4.72;;;2.30;;
26806;SDS011;14380;49.910;6.792;2022-11-15T07:33:08;2.70;;;2.00;;
26806;SDS011;14380;49.910;6.792;2022-11-15T07:35:35;3.45;;;2.53;;
26806;SDS011;14380;49.910;6.792;2022-11-15T07:38:02;6.53;;;2.50;;
26806;SDS011;14380;49.910;6.792;2022-11-15T07:40:30;5.95;;;2.45;;
26806;SDS011;14380;49.910;6.792;2022-11-15T07:43:01;4.55;;;2.40;;
26806;SDS011;14380;49.910;6.792;2022-11-15T07:45:29;4.82;;;1.73;;
26806;SDS011;14380;49.910;6.792;2022-11-15T07:47:56;3.90;;;2.00;;
26806;SDS011;14380;49.910;6.792;2022-11-15T07:50:23;6.97;;;2.00;;
26806;SDS011;14380;49.910;6.792;2022-11-15T07:52:53;3.72;;;1.80;;
26806;SDS011;14380;49.910;6.792;2022-11-15T07:55:21;5.40;;;1.77;;
26806;SDS011;14380;49.910;6.792;2022-11-15T07:57:48;3.97;;;2.00;;
26806;SDS011;14380;49.910;6.792;2022-11-15T08:00:16;2.90;;;1.75;;
26806;SDS011;14380;49.910;6.792;2022-11-15T08:02:43;3.92;;;2.20;;
26806;SDS011;14380;49.910;6.792;2022-11-15T08:05:09;3.08;;;1.80;;
26806;SDS011;14380;49.910;6.792;2022-11-15T08:07:36;2.78;;;1.85;;
26806;SDS011;14380;49.910;6.792;2022-11-15T08:10:04;4.15;;;1.70;;
26806;SDS011;14380;49.910;6.792;2022-11-15T08:12:32;5.28;;;1.83;;
26806;SDS011;14380;49.910;6.792;2022-11-15T08:15:00;4.13;;;2.20;;
26806;SDS011;14380;49.910;6.792;2022-11-15T08:17:27;5.03;;;2.25;;
26806;SDS011;14380;49.910;6.792;2022-11-15T08:19:57;4.32;;;2.47;;
26806;SDS011;14380;49.910;6.792;2022-11-15T08:22:23;8.55;;;2.45;;
26806;SDS011;14380;49.910;6.792;2022-11-15T08:24:49;5.55;;;2.70;;
26806;SDS011;14380;49.910;6.792;2022-11-15T08:27:16;6.35;;;3.00;;
26806;SDS011;14380;49.910;6.792;2022-11-15T08:29:42;3.70;;;2.53;;
26806;SDS011;14380;49.910;6.792;2022-11-15T08:32:11;6.45;;;2.42;;
26806;SDS011;14380;49.910;6.792;2022-11-15T08:34:37;4.93;;;2.50;;
26806;SDS011;14380;49.910;6.792;2022-11-15T08:37:04;9.98;;;2.90;;
26806;SDS011;14380;49.910;6.792;2022-11-15T08:39:31;9.30;;;2.72;;
26806;SDS011;14380;49.910;6.792;2022-11-15T08:41:58;4.50;;;2.50;;
26806;SDS011;14380;49.910;6.792;2022-11-15T08:44:25;8.50;;;2.20;;
26806;SDS011;14380;49.910;6.792;2022-11-15T08:46:51;11.30;;;2.75;;
26806;SDS011;14380;49.910;6.792;2022-11-15T08:49:19;5.38;;;2.05;;
26806;SDS011;14380;49.910;6.792;2022-11-15T08:51:46;7.63;;;2.15;;
26806;SDS011;14380;49.910;6.792;2022-11-15T08:54:12;4.43;;;2.00;;
26806;SDS011;14380;49.910;6.792;2022-11-15T08:56:39;5.20;;;1.80;;
26806;SDS011;14380;49.910;6.792;2022-11-15T08:59:05;6.50;;;2.22;;
26806;SDS011;14380;49.910;6.792;2022-11-15T09:01:32;5.95;;;1.80;;
26806;SDS011;14380;49.910;6.792;2022-11-15T09:03:58;8.27;;;2.10;;
26806;SDS011;14380;49.910;6.792;2022-11-15T09:06:26;5.57;;;2.40;;
26806;SDS011;14380;49.910;6.792;2022-11-15T09:08:53;5.38;;;2.25;;
26806;SDS011;14380;49.910;6.792;2022-11-15T09:11:19;3.45;;;1.55;;
26806;SDS011;14380;49.910;6.792;2022-11-15T09:13:47;6.22;;;1.90;;
26806;SDS011;14380;49.910;6.792;2022-11-15T09:16:13;6.70;;;1.92;;
26806;SDS011;14380;49.910;6.792;2022-11-15T09:18:40;6.20;;;1.50;;
26806;SDS011;14380;49.910;6.792;2022-11-15T09:21:07;3.95;;;1.60;;
26806;SDS011;14380;49.910;6.792;2022-11-15T09:23:36;3.97;;;1.73;;
26806;SDS011;14380;49.910;6.792;2022-11-15T09:26:03;4.28;;;2.10;;
26806;SDS011;14380;49.910;6.792;2022-11-15T09:28:31;6.15;;;1.98;;
26806;SDS011;14380;49.910;6.792;2022-11-15T09:30:58;3.50;;;1.52;;
26806;SDS011;14380;49.910;6.792;2022-11-15T09:33:25;5.28;;;1.10;;
26806;SDS011;14380;49.910;6.792;2022-11-15T09:35:52;7.47;;;1.23;;
26806;SDS011;14380;49.910;6.792;2022-11-15T09:38:18;1.52;;;1.08;;
26806;SDS011;14380;49.910;6.792;2022-11-15T09:40:47;5.28;;;2.03;;
26806;SDS011;14380;49.910;6.792;2022-11-15T09:43:27;5.10;;;1.60;;
26806;SDS011;14380;49.910;6.792;2022-11-15T09:46:01;7.32;;;1.88;;
26806;SDS011;14380;49.910;6.792;2022-11-15T09:48:43;4.07;;;2.08;;
26806;SDS011;14380;49.910;6.792;2022-11-15T09:51:18;6.45;;;2.15;;
26806;SDS011;14380;49.910;6.792;2022-11-15T09:53:51;5.57;;;1.90;;
26806;SDS011;14380;49.910;6.792;2022-11-15T09:56:25;4.03;;;1.50;;
26806;SDS011;14380;49.910;6.792;2022-11-15T09:58:57;3.67;;;2.20;;
26806;SDS011;14380;49.910;6.792;2022-11-15T10:01:34;3.83;;;2.17;;
26806;SDS011;14380;49.910;6.792;2022-11-15T10:04:07;5.07;;;2.50;;
26806;SDS011;14380;49.910;6.792;2022-11-15T10:06:34;3.75;;;2.38;;
26806;SDS011;14380;49.910;6.792;2022-11-15T10:09:05;4.13;;;2.30;;
26806;SDS011;14380;49.910;6.792;2022-11-15T10:11:40;4.47;;;2.30;;
26806;SDS011;14380;49.910;6.792;2022-11-15T10:14:09;3.38;;;2.00;;
26806;SDS011;14380;49.910;6.792;2022-11-15T10:16:50;3.60;;;2.50;;
26806;SDS011;14380;49.910;6.792;2022-11-15T10:19:31;4.43;;;2.38;;
26806;SDS011;14380;49.910;6.792;2022-11-15T10:22:10;5.63;;;3.13;;
26806;SDS011;14380;49.910;6.792;2022-11-15T10:24:45;6.45;;;3.28;;
26806;SDS011;14380;49.910;6.792;2022-11-15T10:27:15;4.63;;;3.20;;
26806;SDS011;14380;49.910;6.792;2022-11-15T10:29:43;5.57;;;3.28;;
26806;SDS011;14380;49.910;6.792;2022-11-15T10:32:11;8.82;;;3.75;;
26806;SDS011;14380;49.910;6.792;2022-11-15T10:34:38;5.57;;;3.97;;
26806;SDS011;14380;49.910;6.792;2022-11-15T10:37:04;6.28;;;5.03;;
26806;SDS011;14380;49.910;6.792;2022-11-15T10:39:31;7.68;;;4.82;;
26806;SDS011;14380;49.910;6.792;2022-11-15T10:41:58;8.57;;;5.65;;
26806;SDS011;14380;49.910;6.792;2022-11-15T10:44:43;8.25;;;5.72;;
26806;SDS011;14380;49.910;6.792;2022-11-15T10:47:20;6.03;;;4.65;;
26806;SDS011;14380;49.910;6.792;2022-11-15T10:50:04;12.95;;;7.18;;
26806;SDS011;14380;49.910;6.792;2022-11-15T10:52:34;9.82;;;7.25;;
26806;SDS011;14380;49.910;6.792;2022-11-15T10:55:04;8.88;;;5.43;;
26806;SDS011;14380;49.910;6.792;2022-11-15T10:57:49;15.45;;;8.35;;
26806;SDS011;14380;49.910;6.792;2022-11-15T11:00:26;12.02;;;7.95;;
26806;SDS011;14380;49.910;6.792;2022-11-15T11:02:58;9.25;;;7.10;;
26806;SDS011;14380;49.910;6.792;2022-11-15T11:05:27;10.38;;;7.70;;
26806;SDS011;14380;49.910;6.792;2022-11-15T11:07:57;11.60;;;7.78;;
26806;SDS011;14380;49.910;6.792;2022-11-15T11:10:26;9.30;;;7.32;;
26806;SDS011;14380;49.910;6.792;2022-11-15T11:12:54;9.50;;;6.82;;
26806;SDS011;14380;49.910;6.792;2022-11-15T11:15:20;8.70;;;7.40;;
26806;SDS011;14380;49.910;6.792;2022-11-15T11:17:56;10.25;;;5.90;;
26806;SDS011;14380;49.910;6.792;2022-11-15T11:20:30;10.38;;;7.15;;
26806;SDS011;14380;49.910;6.792;2022-11-15T11:23:06;7.28;;;5.88;;
26806;SDS011;14380;49.910;6.792;2022-11-15T11:25:46;8.63;;;5.70;;
26806;SDS011;14380;49.910;6.792;2022-11-15T11:28:25;9.70;;;6.40;;
26806;SDS011;14380;49.910;6.792;2022-11-15T11:31:03;7.32;;;5.97;;
26806;SDS011;14380;49.910;6.792;2022-11-15T11:33:41;10.90;;;5.88;;
26806;SDS011;14380;49.910;6.792;2022-11-15T11:36:16;8.65;;;6.43;;
26806;SDS011;14380;49.910;6.792;2022-11-15T11:38:55;7.65;;;5.22;;
26806;SDS011;14380;49.910;6.792;2022-11-15T11:44:24;4.93;;;3.63;;
26806;SDS011;14380;49.910;6.792;2022-11-15T11:46:58;5.97;;;3.95;;
26806;SDS011;14380;49.910;6.792;2022-11-15T11:49:28;5.65;;;3.10;;
26806;SDS011;14380;49.910;6.792;2022-11-15T11:52:00;6.05;;;2.70;;
26806;SDS011;14380;49.910;6.792;2022-11-15T11:54:32;2.80;;;2.40;;
26806;SDS011;14380;49.910;6.792;2022-11-15T11:57:05;4.53;;;2.22;;
26806;SDS011;14380;49.910;6.792;2022-11-15T11:59:41;6.32;;;2.58;;
26806;SDS011;14380;49.910;6.792;2022-11-15T12:02:14;3.30;;;2.17;;
26806;SDS011;14380;49.910;6.792;2022-11-15T12:04:45;3.67;;;2.13;;
26806;SDS011;14380;49.910;6.792;2022-11-15T12:07:17;3.13;;;2.28;;
26806;SDS011;14380;49.910;6.792;2022-11-15T12:09:51;4.20;;;2.10;;
26806;SDS011;14380;49.910;6.792;2022-11-15T12:12:25;9.68;;;3.38;;
26806;SDS011;14380;49.910;6.792;2022-11-15T12:15:00;3.65;;;2.25;;
26806;SDS011;14380;49.910;6.792;2022-11-15T12:17:29;4.93;;;1.67;;
26806;SDS011;14380;49.910;6.792;2022-11-15T12:19:58;4.60;;;2.10;;
26806;SDS011;14380;49.910;6.792;2022-11-15T12:22:27;5.72;;;1.70;;
26806;SDS011;14380;49.910;6.792;2022-11-15T12:25:02;2.90;;;1.60;;
26806;SDS011;14380;49.910;6.792;2022-11-15T12:27:33;4.80;;;2.00;;
26806;SDS011;14380;49.910;6.792;2022-11-15T12:30:10;2.85;;;1.63;;
26806;SDS011;14380;49.910;6.792;2022-11-15T12:32:39;5.60;;;2.15;;
26806;SDS011;14380;49.910;6.792;2022-11-15T12:35:20;3.60;;;1.63;;
26806;SDS011;14380;49.910;6.792;2022-11-15T12:37:50;3.00;;;1.90;;
26806;SDS011;14380;49.910;6.792;2022-11-15T12:46:05;4.57;;;2.15;;
26806;SDS011;14380;49.910;6.792;2022-11-15T12:48:45;5.32;;;2.40;;
26806;SDS011;14380;49.910;6.792;2022-11-15T12:51:18;2.58;;;1.30;;
26806;SDS011;14380;49.910;6.792;2022-11-15T12:53:46;3.08;;;1.42;;
26806;SDS011;14380;49.910;6.792;2022-11-15T12:56:22;6.28;;;1.65;;
26806;SDS011;14380;49.910;6.792;2022-11-15T13:04:25;3.53;;;1.40;;
26806;SDS011;14380;49.910;6.792;2022-11-15T13:06:53;5.10;;;1.38;;
26806;SDS011;14380;49.910;6.792;2022-11-15T13:15:32;1.77;;;1.40;;
26806;SDS011;14380;49.910;6.792;2022-11-15T13:20:57;5.10;;;1.60;;
26806;SDS011;14380;49.910;6.792;2022-11-15T13:23:24;5.63;;;1.90;;
26806;SDS011;14380;49.910;6.792;2022-11-15T13:26:08;4.43;;;1.40;;
26806;SDS011;14380;49.910;6.792;2022-11-15T13:28:39;4.53;;;1.60;;
26806;SDS011;14380;49.910;6.792;2022-11-15T13:31:26;2.40;;;1.30;;
26806;SDS011;14380;49.910;6.792;2022-11-15T13:33:57;4.32;;;1.33;;
26806;SDS011;14380;49.910;6.792;2022-11-15T13:36:28;3.50;;;1.42;;
26806;SDS011;14380;49.910;6.792;2022-11-15T13:38:59;2.03;;;1.10;;
26806;SDS011;14380;49.910;6.792;2022-11-15T13:41:28;3.20;;;1.30;;
26806;SDS011;14380;49.910;6.792;2022-11-15T13:43:56;3.88;;;1.00;;
26806;SDS011;14380;49.910;6.792;2022-11-15T13:46:24;2.63;;;1.10;;
26806;SDS011;14380;49.910;6.792;2022-11-15T13:48:53;1.58;;;0.98;;
26806;SDS011;14380;49.910;6.792;2022-11-15T13:51:27;4.40;;;1.20;;
26806;SDS011;14380;49.910;6.792;2022-11-15T13:54:06;2.63;;;1.35;;
26806;SDS011;14380;49.910;6.792;2022-11-15T13:56:40;3.70;;;1.17;;
26806;SDS011;14380;49.910;6.792;2022-11-15T13:59:14;3.63;;;1.10;;
26806;SDS011;14380;49.910;6.792;2022-11-15T14:01:44;1.33;;;1.02;;
26806;SDS011;14380;49.910;6.792;2022-11-15T14:04:11;4.85;;;1.38;;
26806;SDS011;14380;49.910;6.792;2022-11-15T14:06:45;0.85;;;0.70;;
26806;SDS011;14380;49.910;6.792;2022-11-15T14:09:25;1.23;;;0.80;;
26806;SDS011;14380;49.910;6.792;2022-11-15T14:11:57;4.68;;;1.10;;
26806;SDS011;14380;49.910;6.792;2022-11-15T14:14:25;4.72;;;1.33;;
26806;SDS011;14380;49.910;6.792;2022-11-15T14:16:53;8.82;;;1.10;;
26806;SDS011;14380;49.910;6.792;2022-11-15T14:19:33;2.65;;;0.85;;
26806;SDS011;14380;49.910;6.792;2022-11-15T14:22:13;3.20;;;1.15;;
26806;SDS011;14380;49.910;6.792;2022-11-15T14:24:43;2.60;;;1.00;;
26806;SDS011;14380;49.910;6.792;2022-11-15T14:27:22;2.55;;;0.80;;
26806;SDS011;14380;49.910;6.792;2022-11-15T14:29:50;5.30;;;1.00;;
26806;SDS011;14380;49.910;6.792;2022-11-15T14:32:18;4.50;;;1.20;;
26806;SDS011;14380;49.910;6.792;2022-11-15T14:34:46;2.72;;;1.00;;
26806;SDS011;14380;49.910;6.792;2022-11-15T14:37:18;3.72;;;1.20;;
26806;SDS011;14380;49.910;6.792;2022-11-15T14:39:47;3.83;;;1.27;;
26806;SDS011;14380;49.910;6.792;2022-11-15T14:42:13;1.13;;;0.75;;
26806;SDS011;14380;49.910;6.792;2022-11-15T14:44:40;2.58;;;1.00;;
26806;SDS011;14380;49.910;6.792;2022-11-15T14:47:06;3.95;;;1.25;;
26806;SDS011;14380;49.910;6.792;2022-11-15T14:49:33;2.90;;;0.90;;
26806;SDS011;14380;49.910;6.792;2022-11-15T14:51:59;7.88;;;1.00;;
26806;SDS011;14380;49.910;6.792;2022-11-15T14:54:27;1.67;;;1.13;;
26806;SDS011;14380;49.910;6.792;2022-11-15T14:56:54;1.75;;;1.17;;
26806;SDS011;14380;49.910;6.792;2022-11-15T14:59:20;2.30;;;0.80;;
26806;SDS011;14380;49.910;6.792;2022-11-15T15:01:47;3.45;;;1.30;;
26806;SDS011;14380;49.910;6.792;2022-11-15T15:04:13;2.05;;;1.23;;
26806;SDS011;14380;49.910;6.792;2022-11-15T15:06:40;3.80;;;1.08;;
26806;SDS011;14380;49.910;6.792;2022-11-15T15:09:06;3.00;;;1.00;;
26806;SDS011;14380;49.910;6.792;2022-11-15T15:11:34;8.15;;;1.08;;
26806;SDS011;14380;49.910;6.792;2022-11-15T15:14:00;5.13;;;1.40;;
26806;SDS011;14380;49.910;6.792;2022-11-15T15:16:27;3.22;;;1.30;;
26806;SDS011;14380;49.910;6.792;2022-11-15T15:18:54;2.08;;;1.20;;
26806;SDS011;14380;49.910;6.792;2022-11-15T15:21:21;3.17;;;1.00;;
26806;SDS011;14380;49.910;6.792;2022-11-15T15:23:49;2.83;;;1.77;;
26806;SDS011;14380;49.910;6.792;2022-11-15T15:26:16;2.75;;;1.00;;
26806;SDS011;14380;49.910;6.792;2022-11-15T15:28:44;4.68;;;1.23;;
26806;SDS011;14380;49.910;6.792;2022-11-15T15:31:10;1.40;;;0.93;;
26806;SDS011;14380;49.910;6.792;2022-11-15T15:33:37;2.95;;;1.17;;